Omiya, Japan
Current Conditions -  °F | °C
As of 2:58 PM on Saturday 25 Oct 2014 (Local Time) from RJTY Reporting Station
Few Clouds Few Clouds  
Wind Chill: 72°   Ceiling: Unl
Heat Index: 72°   Visibility: 10mi
Dew Point: 58°   Wind: 10mph
Humidity: 61%   Direction: 190°S
Pressure: 30.21"   Gusts: NA
Location:  35.9°N, 139.63°E
Report Text: RJTY 250558Z AUTO 19009KT 10SM FEW180 22/15 A3021 RMK AO2 SLP232 T02240146 10227 20166 55011
Loading
Personal Weather Stations






























Interactive Weather Map
Tropical Storm Tracking
New forecast layout! Learn more

10-Day Weather Forecast

Advertisements
Track Severe Weather on mobile